Valatie, NY (12184)

12:38 AM EST on November 24, 2014 (GMT -0500)
Chatham NY Weather Observation Club | Change Station
CLOSE
Current Station
Personal Weather Station
Location: Chatham, NY
Elevation: 480 ft
Nearby Weather Stations

Elev 480 ft 42.36 °N, 73.60 °W | Updated 8 seconds ago

Mostly Cloudy
Mostly Cloudy
50.5 °F
Feels Like 50.5 °F
N
1.2
Wind Variable Wind from East
Gusts 1.2 mph

Today
High -- | Low -- °F
--% Chance of Precip.
Yesterday
High -- | Low -- °F
Precip. -- in
6:56 AM 4:25 PM
Waxing Crescent, 4% visible
Pressure 29.99 in
Visibility 8.0 miles
Clouds Clear
Dew Point 38 °F
Humidity 63%
Rainfall 0.00 in
Snow Depth Not available.
UV 0 out of 12
Pollen .10 out of 12
Air Quality Not available.
Flu Activity Not available.
METAR KPSF 240454Z AUTO 00000KT 8SM CLR 02/01 A2999 RMK AO2 SLP156 T00170006 401280006

More Conditions Fewer Conditions

Pressure 29.99 in
Visibility 8.0 miles
Clouds Clear
Dew Point 38 °F
Humidity 63%
Rainfall 0.00 in
Snow Depth Not available.
UV 0 out of 12
Pollen .10 out of 12
Air Quality Not available.
Flu Activity Not available.
METAR KPSF 240454Z AUTO 00000KT 8SM CLR 02/01 A2999 RMK AO2 SLP156 T00170006 401280006

More Conditions Fewer Conditions

10-Day Weather Forecast

Almanac

Astronomy

Nov. 24, 2014 Rise Set
Actual Time
Civil Twilight
Nautical Twilight
Astronomical Twilight
Moon
Length of Visible Light
Length of Day
Tomorrow will be .
, % of the Moon is Illuminated

Today's Extremes

State Highs State Lows

Community

WunderPhotos

Upload Photos

1,773,279 photos uploaded!

WunderBlogs® & News

Nearby

Air Quality

  Air Quality AQ Index Pollutant
Not available.

Snow Depth

Station Depth Elevation

Earthquake Activity

City Distance Mag. Time & Date
Minimum magnitude displayed is 2.5.

Coastal Water Temperatures

Place Temperature

Nearby Weather Stations